createdAt,value
2018-05-18T00:00:31.779Z,1012.64
2018-05-18T00:01:31.776Z,1012.68
2018-05-18T00:02:31.776Z,1012.63
2018-05-18T00:03:31.775Z,1012.63
2018-05-18T00:04:31.767Z,1012.63
2018-05-18T00:05:31.766Z,1012.60
2018-05-18T00:06:31.760Z,1012.61
2018-05-18T00:07:31.761Z,1012.61
2018-05-18T00:08:31.759Z,1012.64
2018-05-18T00:09:31.753Z,1012.61
2018-05-18T00:10:31.754Z,1012.60
2018-05-18T00:11:31.750Z,1012.63
2018-05-18T00:12:31.746Z,1012.63
2018-05-18T00:13:31.748Z,1012.64
2018-05-18T00:14:31.741Z,1012.68
2018-05-18T00:15:31.739Z,1012.69
2018-05-18T00:16:31.734Z,1012.68
2018-05-18T00:17:31.732Z,1012.69
2018-05-18T00:18:31.727Z,1012.70
2018-05-18T00:19:31.728Z,1012.69
2018-05-18T00:20:31.721Z,1012.66
2018-05-18T00:21:31.719Z,1012.66
2018-05-18T00:22:31.717Z,1012.66
2018-05-18T00:23:31.712Z,1012.69
2018-05-18T00:24:31.712Z,1012.66
2018-05-18T00:25:31.708Z,1012.66
2018-05-18T00:26:31.704Z,1012.67
2018-05-18T00:27:31.706Z,1012.71
2018-05-18T00:28:31.698Z,1012.69
2018-05-18T00:29:31.694Z,1012.71
2018-05-18T00:30:31.693Z,1012.71
2018-05-18T00:31:31.688Z,1012.74
2018-05-18T00:32:31.685Z,1012.76
2018-05-18T00:33:31.683Z,1012.77
2018-05-18T00:34:31.679Z,1012.73
2018-05-18T00:35:31.678Z,1012.70
2018-05-18T00:36:31.673Z,1012.74
2018-05-18T00:37:31.671Z,1012.74
2018-05-18T00:38:31.667Z,1012.74
2018-05-18T00:39:31.664Z,1012.71
2018-05-18T00:40:31.660Z,1012.73
2018-05-18T00:41:31.662Z,1012.77
2018-05-18T00:42:31.654Z,1012.76
2018-05-18T00:43:31.651Z,1012.74
2018-05-18T00:44:31.651Z,1012.75
2018-05-18T00:45:31.644Z,1012.78
2018-05-18T00:46:31.642Z,1012.76
2018-05-18T00:47:31.640Z,1012.77
2018-05-18T00:48:31.632Z,1012.76
2018-05-18T00:49:31.633Z,1012.73
2018-05-18T00:50:31.628Z,1012.74
2018-05-18T00:51:31.631Z,1012.73
2018-05-18T00:52:31.624Z,1012.71
2018-05-18T00:53:31.619Z,1012.70
2018-05-18T00:54:31.617Z,1012.74
2018-05-18T00:55:31.615Z,1012.73
2018-05-18T00:56:31.609Z,1012.73
2018-05-18T00:57:31.611Z,1012.77
2018-05-18T00:58:31.602Z,1012.74
2018-05-18T00:59:31.597Z,1012.69
2018-05-18T01:00:31.596Z,1012.70
2018-05-18T01:01:31.592Z,1012.74
2018-05-18T01:02:31.589Z,1012.72
2018-05-18T01:03:31.587Z,1012.71
2018-05-18T01:04:31.582Z,1012.69
2018-05-18T01:05:31.578Z,1012.70
2018-05-18T01:06:31.576Z,1012.74
2018-05-18T01:07:31.575Z,1012.74
2018-05-18T01:08:31.571Z,1012.72
2018-05-18T01:09:31.567Z,1012.75
2018-05-18T01:10:31.564Z,1012.74
2018-05-18T01:11:31.560Z,1012.75
2018-05-18T01:12:31.559Z,1012.73
2018-05-18T01:13:31.557Z,1012.74
2018-05-18T01:14:31.551Z,1012.75
2018-05-18T01:15:31.546Z,1012.75
2018-05-18T01:16:31.544Z,1012.74
2018-05-18T01:17:31.545Z,1012.72
2018-05-18T01:18:31.537Z,1012.71
2018-05-18T01:19:31.534Z,1012.74
2018-05-18T01:20:31.592Z,1012.75
2018-05-18T01:21:31.528Z,1012.76
2018-05-18T01:22:31.524Z,1012.79
2018-05-18T01:23:31.520Z,1012.77
2018-05-18T01:24:31.518Z,1012.78
2018-05-18T01:25:31.515Z,1012.76
2018-05-18T01:26:31.561Z,1012.75
2018-05-18T01:27:31.508Z,1012.78
2018-05-18T01:28:31.507Z,1012.79
2018-05-18T01:29:31.502Z,1012.80
2018-05-18T01:30:31.577Z,1012.79
2018-05-18T01:31:31.493Z,1012.79
2018-05-18T01:32:31.488Z,1012.80
2018-05-18T01:33:31.487Z,1012.83
2018-05-18T01:34:31.484Z,1012.87
2018-05-18T01:35:31.480Z,1012.89
2018-05-18T01:36:31.478Z,1012.91
2018-05-18T01:37:31.475Z,1012.88
2018-05-18T01:38:31.473Z,1012.88
2018-05-18T01:39:31.465Z,1012.88
2018-05-18T01:40:31.469Z,1012.88
2018-05-18T01:41:31.462Z,1012.90
2018-05-18T01:42:31.455Z,1012.89
2018-05-18T01:43:31.453Z,1012.87
2018-05-18T01:44:31.454Z,1012.89
2018-05-18T01:45:31.451Z,1012.88
2018-05-18T01:46:31.447Z,1012.87
2018-05-18T01:47:31.441Z,1012.89
2018-05-18T01:48:31.439Z,1012.89
2018-05-18T01:49:31.436Z,1012.86
2018-05-18T01:50:31.433Z,1012.89
2018-05-18T01:51:31.433Z,1012.86
2018-05-18T01:52:31.426Z,1012.85
2018-05-18T01:53:31.424Z,1012.87
2018-05-18T01:54:31.422Z,1012.89
2018-05-18T01:55:31.416Z,1012.85
2018-05-18T01:56:31.414Z,1012.90
2018-05-18T01:57:31.411Z,1012.88
2018-05-18T01:58:31.407Z,1012.85
2018-05-18T01:59:31.405Z,1012.86
2018-05-18T02:00:31.401Z,1012.89
2018-05-18T02:01:31.398Z,1012.84
2018-05-18T02:02:31.397Z,1012.86
2018-05-18T02:03:31.389Z,1012.85
2018-05-18T02:04:31.388Z,1012.86
2018-05-18T02:05:31.383Z,1012.87
2018-05-18T02:06:31.380Z,1012.88
2018-05-18T02:07:31.381Z,1012.87
2018-05-18T02:08:31.373Z,1012.91
2018-05-18T02:09:31.368Z,1012.88
2018-05-18T02:10:31.366Z,1012.94
2018-05-18T02:11:31.363Z,1012.93
2018-05-18T02:12:31.360Z,1012.97
2018-05-18T02:13:31.357Z,1012.94
2018-05-18T02:14:31.354Z,1012.89
2018-05-18T02:15:31.352Z,1012.92
2018-05-18T02:16:31.346Z,1012.89
2018-05-18T02:17:31.349Z,1012.89
2018-05-18T02:18:31.343Z,1012.88
2018-05-18T02:19:31.342Z,1012.91
2018-05-18T02:20:31.332Z,1012.86
2018-05-18T02:21:31.332Z,1012.90
2018-05-18T02:22:31.324Z,1012.89
2018-05-18T02:23:31.320Z,1012.91
2018-05-18T02:24:31.321Z,1012.92
2018-05-18T02:25:31.319Z,1012.94
2018-05-18T02:26:31.312Z,1012.95
2018-05-18T02:27:31.308Z,1012.97
2018-05-18T02:28:31.304Z,1012.96
2018-05-18T02:29:31.303Z,1012.99
2018-05-18T02:30:31.299Z,1012.99
2018-05-18T02:31:31.293Z,1013.00
2018-05-18T02:32:31.292Z,1012.99
2018-05-18T02:33:31.286Z,1013.01
2018-05-18T02:34:31.286Z,1012.99
2018-05-18T02:35:31.280Z,1012.97
2018-05-18T02:36:31.278Z,1012.99
2018-05-18T02:37:31.274Z,1013.01
2018-05-18T02:38:31.272Z,1013.02
2018-05-18T02:39:31.270Z,1013.01
2018-05-18T02:40:31.264Z,1013.05
2018-05-18T02:41:31.258Z,1013.07
2018-05-18T02:42:31.259Z,1013.04
2018-05-18T02:43:31.257Z,1013.03
2018-05-18T02:44:31.247Z,1013.06
2018-05-18T02:45:31.248Z,1013.03
2018-05-18T02:46:31.244Z,1013.04
2018-05-18T02:47:31.238Z,1013.03
2018-05-18T02:48:31.236Z,1013.03
2018-05-18T02:49:31.240Z,1013.02
2018-05-18T02:50:31.247Z,1013.00
2018-05-18T02:51:31.227Z,1013.02
2018-05-18T02:52:31.291Z,1013.05
2018-05-18T02:53:31.220Z,1013.00
2018-05-18T02:54:31.213Z,1012.98
2018-05-18T02:55:31.211Z,1013.00
2018-05-18T02:56:31.209Z,1012.99
2018-05-18T02:57:31.208Z,1013.00
2018-05-18T02:58:31.203Z,1013.02
2018-05-18T02:59:31.198Z,1013.01
2018-05-18T03:00:31.199Z,1013.03
2018-05-18T03:01:31.192Z,1013.03
2018-05-18T03:02:31.189Z,1013.01
2018-05-18T03:03:31.188Z,1013.04
2018-05-18T03:04:31.182Z,1013.04
2018-05-18T03:05:31.177Z,1013.04
2018-05-18T03:06:31.175Z,1013.09
2018-05-18T03:07:31.169Z,1013.10
2018-05-18T03:08:31.172Z,1013.08
2018-05-18T03:09:31.166Z,1013.06
2018-05-18T03:10:31.162Z,1013.07
2018-05-18T03:11:31.158Z,1013.06
2018-05-18T03:12:31.156Z,1013.02
2018-05-18T03:13:31.154Z,1013.05
2018-05-18T03:14:31.148Z,1013.03
2018-05-18T03:15:31.145Z,1013.08
2018-05-18T03:16:31.140Z,1013.09
2018-05-18T03:17:31.148Z,1013.10
2018-05-18T03:18:31.133Z,1013.11
2018-05-18T03:19:31.138Z,1013.13
2018-05-18T03:20:31.130Z,1013.13
2018-05-18T03:21:31.123Z,1013.16
2018-05-18T03:22:31.120Z,1013.16
2018-05-18T03:23:31.116Z,1013.15
2018-05-18T03:24:31.116Z,1013.14
2018-05-18T03:25:31.109Z,1013.16
2018-05-18T03:26:31.108Z,1013.19
2018-05-18T03:27:31.103Z,1013.19
2018-05-18T03:28:31.100Z,1013.21
2018-05-18T03:29:31.103Z,1013.21
2018-05-18T03:30:31.095Z,1013.22
2018-05-18T03:31:31.089Z,1013.23
2018-05-18T03:32:31.087Z,1013.23
2018-05-18T03:33:31.084Z,1013.24
2018-05-18T03:34:31.078Z,1013.30
2018-05-18T03:35:31.076Z,1013.33
2018-05-18T03:36:31.076Z,1013.31
2018-05-18T03:37:31.068Z,1013.33
2018-05-18T03:38:31.065Z,1013.32
2018-05-18T03:39:31.061Z,1013.32
2018-05-18T03:40:31.060Z,1013.33
2018-05-18T03:41:31.055Z,1013.30
2018-05-18T03:42:31.051Z,1013.29
2018-05-18T03:43:31.049Z,1013.34
2018-05-18T03:44:31.043Z,1013.38
2018-05-18T03:45:31.042Z,1013.35
2018-05-18T03:46:31.037Z,1013.36
2018-05-18T03:47:31.033Z,1013.33
2018-05-18T03:48:31.035Z,1013.32
2018-05-18T03:49:31.028Z,1013.33
2018-05-18T03:50:31.025Z,1013.27
2018-05-18T03:51:31.026Z,1013.28
2018-05-18T03:52:31.016Z,1013.34
2018-05-18T03:53:31.014Z,1013.33
2018-05-18T03:54:31.012Z,1013.36
2018-05-18T03:55:31.006Z,1013.37
2018-05-18T03:56:31.005Z,1013.41
2018-05-18T03:57:31.002Z,1013.38
2018-05-18T03:58:30.999Z,1013.37
2018-05-18T03:59:30.993Z,1013.41
2018-05-18T04:00:30.993Z,1013.39
2018-05-18T04:01:31.083Z,1013.41
2018-05-18T04:02:31.002Z,1013.43
2018-05-18T04:03:30.979Z,1013.42
2018-05-18T04:04:30.979Z,1013.42
2018-05-18T04:05:30.974Z,1013.43
2018-05-18T04:06:30.969Z,1013.44
2018-05-18T04:07:30.966Z,1013.44
2018-05-18T04:08:30.962Z,1013.42
2018-05-18T04:09:30.959Z,1013.41
2018-05-18T04:10:30.950Z,1013.41
2018-05-18T04:11:30.953Z,1013.44
2018-05-18T04:12:30.951Z,1013.47
2018-05-18T04:13:30.945Z,1013.44
2018-05-18T04:14:30.939Z,1013.46
2018-05-18T04:15:30.934Z,1013.44
2018-05-18T04:16:30.934Z,1013.47
2018-05-18T04:17:30.930Z,1013.44
2018-05-18T04:18:30.922Z,1013.43
2018-05-18T04:19:30.920Z,1013.46
2018-05-18T04:20:30.925Z,1013.41
2018-05-18T04:21:30.916Z,1013.47
2018-05-18T04:22:30.917Z,1013.41
2018-05-18T04:23:30.908Z,1013.44
2018-05-18T04:24:30.905Z,1013.41
2018-05-18T04:25:30.902Z,1013.46
2018-05-18T04:26:30.899Z,1013.45
2018-05-18T04:27:30.896Z,1013.43
2018-05-18T04:28:30.897Z,1013.44
2018-05-18T04:29:30.890Z,1013.42
2018-05-18T04:30:30.982Z,1013.44
2018-05-18T04:31:30.882Z,1013.45
2018-05-18T04:32:30.877Z,1013.48
2018-05-18T04:33:30.877Z,1013.47
2018-05-18T04:34:30.871Z,1013.52
2018-05-18T04:35:30.869Z,1013.54
2018-05-18T04:36:30.864Z,1013.47
2018-05-18T04:37:30.862Z,1013.52
2018-05-18T04:38:30.857Z,1013.54
2018-05-18T04:39:30.856Z,1013.50
2018-05-18T04:40:30.856Z,1013.56
2018-05-18T04:41:30.852Z,1013.56
2018-05-18T04:42:30.846Z,1013.54
2018-05-18T04:43:30.841Z,1013.53
2018-05-18T04:44:30.843Z,1013.57
2018-05-18T04:45:30.836Z,1013.60
2018-05-18T04:46:30.833Z,1013.62
2018-05-18T04:47:30.830Z,1013.65
2018-05-18T04:48:30.825Z,1013.63
2018-05-18T04:49:30.823Z,1013.63
2018-05-18T04:50:30.823Z,1013.70
2018-05-18T04:51:30.816Z,1013.62
2018-05-18T04:52:30.815Z,1013.65
2018-05-18T04:53:30.811Z,1013.70
2018-05-18T04:54:30.807Z,1013.68
2018-05-18T04:55:30.803Z,1013.68
2018-05-18T04:56:30.801Z,1013.68
2018-05-18T04:57:30.798Z,1013.71
2018-05-18T04:58:30.796Z,1013.70
2018-05-18T04:59:30.798Z,1013.70
2018-05-18T05:00:30.795Z,1013.68
2018-05-18T05:01:30.795Z,1013.67
2018-05-18T05:02:30.787Z,1013.70
2018-05-18T05:03:30.780Z,1013.69
2018-05-18T05:04:30.778Z,1013.74
2018-05-18T05:05:30.805Z,1013.77
2018-05-18T05:06:30.782Z,1013.70
2018-05-18T05:07:30.770Z,1013.69
2018-05-18T05:08:30.767Z,1013.71
2018-05-18T05:09:30.764Z,1013.73
2018-05-18T05:10:30.764Z,1013.73
2018-05-18T05:11:30.758Z,1013.78
2018-05-18T05:12:30.766Z,1013.79
2018-05-18T05:13:30.753Z,1013.83
2018-05-18T05:14:30.749Z,1013.80
2018-05-18T05:15:30.748Z,1013.82
2018-05-18T05:16:30.742Z,1013.83
2018-05-18T05:17:30.747Z,1013.87
2018-05-18T05:18:30.738Z,1013.87
2018-05-18T05:19:30.733Z,1013.87
2018-05-18T05:20:30.737Z,1013.90
2018-05-18T05:21:30.732Z,1013.96
2018-05-18T05:22:30.733Z,1013.89
2018-05-18T05:23:30.727Z,1013.90
2018-05-18T05:24:30.723Z,1013.93
2018-05-18T05:25:30.723Z,1013.93
2018-05-18T05:26:30.725Z,1013.93
2018-05-18T05:27:30.710Z,1013.94
2018-05-18T05:28:30.709Z,1013.91
2018-05-18T05:29:30.713Z,1013.91
2018-05-18T05:30:30.772Z,1013.93
2018-05-18T05:31:30.701Z,1013.92
2018-05-18T05:32:30.698Z,1013.96
2018-05-18T05:33:30.697Z,1013.98
2018-05-18T05:34:30.698Z,1013.99
2018-05-18T05:35:30.689Z,1013.99
2018-05-18T05:36:30.688Z,1014.01
2018-05-18T05:37:30.685Z,1014.02
2018-05-18T05:38:30.683Z,1013.99
2018-05-18T05:39:30.675Z,1014.00
2018-05-18T05:40:30.677Z,1014.00
2018-05-18T05:41:30.674Z,1014.02
2018-05-18T05:42:30.679Z,1014.00
2018-05-18T05:43:30.666Z,1013.99
2018-05-18T05:44:30.667Z,1014.02
2018-05-18T05:45:30.662Z,1014.01
2018-05-18T05:46:30.659Z,1014.00
2018-05-18T05:47:30.656Z,1014.04
2018-05-18T05:48:30.653Z,1014.04
2018-05-18T05:49:30.648Z,1014.08
2018-05-18T05:50:30.649Z,1014.06
2018-05-18T05:51:30.645Z,1014.05
2018-05-18T05:52:30.644Z,1014.09
2018-05-18T05:53:30.649Z,1014.09
2018-05-18T05:54:30.640Z,1014.07
2018-05-18T05:55:30.637Z,1014.09
2018-05-18T05:56:30.635Z,1014.12
2018-05-18T05:57:30.632Z,1014.08
2018-05-18T05:58:30.655Z,1014.12
2018-05-18T05:59:30.626Z,1014.11
2018-05-18T06:00:30.624Z,1014.08
2018-05-18T06:01:30.621Z,1014.13
2018-05-18T06:02:30.627Z,1014.14
2018-05-18T06:03:30.622Z,1014.11
2018-05-18T06:04:30.615Z,1014.13
2018-05-18T06:05:30.615Z,1014.12
2018-05-18T06:06:30.613Z,1014.16
2018-05-18T06:07:30.611Z,1014.18
2018-05-18T06:08:30.606Z,1014.15
2018-05-18T06:09:30.607Z,1014.12
2018-05-18T06:10:30.603Z,1014.11
2018-05-18T06:11:30.597Z,1014.18
2018-05-18T06:12:30.597Z,1014.12
2018-05-18T06:13:30.598Z,1014.12
2018-05-18T06:14:30.599Z,1014.12
2018-05-18T06:15:30.589Z,1014.09
2018-05-18T06:16:30.597Z,1014.14
2018-05-18T06:17:30.589Z,1014.11
2018-05-18T06:18:30.586Z,1014.12
2018-05-18T06:19:30.650Z,1014.19
2018-05-18T06:20:30.583Z,1014.16
2018-05-18T06:21:30.579Z,1014.17
2018-05-18T06:22:30.583Z,1014.22
2018-05-18T06:23:30.574Z,1014.23
2018-05-18T06:24:30.573Z,1014.23
2018-05-18T06:25:30.573Z,1014.16
2018-05-18T06:26:30.570Z,1014.22
2018-05-18T06:27:30.567Z,1014.19
2018-05-18T06:28:30.569Z,1014.17
2018-05-18T06:29:30.566Z,1014.20
2018-05-18T06:30:30.568Z,1014.23
2018-05-18T06:31:30.560Z,1014.22
2018-05-18T06:32:30.564Z,1014.20
2018-05-18T06:33:30.556Z,1014.20
2018-05-18T06:34:30.564Z,1014.23
2018-05-18T06:35:30.550Z,1014.22
2018-05-18T06:36:30.543Z,1014.22
2018-05-18T06:37:30.562Z,1014.20
2018-05-18T06:38:30.550Z,1014.22
2018-05-18T06:39:30.545Z,1014.17
2018-05-18T06:40:30.656Z,1014.21
2018-05-18T06:41:30.545Z,1014.18
2018-05-18T06:42:30.538Z,1014.22
2018-05-18T06:43:30.534Z,1014.24
2018-05-18T06:44:30.534Z,1014.25
2018-05-18T06:45:30.535Z,1014.28
2018-05-18T06:46:30.526Z,1014.26
2018-05-18T06:47:30.524Z,1014.31
2018-05-18T06:48:30.522Z,1014.29
2018-05-18T06:49:30.527Z,1014.29
2018-05-18T06:50:30.522Z,1014.31
2018-05-18T06:51:30.526Z,1014.32
2018-05-18T06:52:30.533Z,1014.33
2018-05-18T06:53:30.516Z,1014.40
2018-05-18T06:54:30.515Z,1014.32
2018-05-18T06:55:30.510Z,1014.37
2018-05-18T06:56:30.508Z,1014.38
2018-05-18T06:57:30.510Z,1014.41
2018-05-18T06:58:30.503Z,1014.38
2018-05-18T06:59:30.501Z,1014.36
2018-05-18T07:00:30.501Z,1014.42
2018-05-18T07:01:30.499Z,1014.40
2018-05-18T07:02:30.501Z,1014.40
2018-05-18T07:03:30.500Z,1014.36
2018-05-18T07:04:30.495Z,1014.38
2018-05-18T07:05:30.495Z,1014.38
2018-05-18T07:06:30.493Z,1014.37
2018-05-18T07:07:30.498Z,1014.40
2018-05-18T07:08:30.487Z,1014.39
2018-05-18T07:09:30.487Z,1014.35
2018-05-18T07:10:30.574Z,1014.33
2018-05-18T07:11:30.480Z,1014.38
2018-05-18T07:12:30.482Z,1014.37
2018-05-18T07:13:30.480Z,1014.39
2018-05-18T07:14:30.478Z,1014.41
2018-05-18T07:15:30.478Z,1014.36
2018-05-18T07:16:30.519Z,1014.38
2018-05-18T07:17:30.476Z,1014.35
2018-05-18T07:18:30.474Z,1014.35
2018-05-18T07:19:30.472Z,1014.38
2018-05-18T07:20:30.472Z,1014.37
2018-05-18T07:21:30.466Z,1014.37
2018-05-18T07:22:30.470Z,1014.36
2018-05-18T07:23:30.469Z,1014.42
2018-05-18T07:24:30.466Z,1014.35
2018-05-18T07:25:30.469Z,1014.33
2018-05-18T07:26:30.465Z,1014.33
2018-05-18T07:27:30.466Z,1014.40
2018-05-18T07:28:30.466Z,1014.37
2018-05-18T07:29:30.461Z,1014.34
2018-05-18T07:30:30.463Z,1014.37
2018-05-18T07:31:30.463Z,1014.35
2018-05-18T07:32:30.467Z,1014.35
2018-05-18T07:33:30.463Z,1014.32
2018-05-18T07:34:30.462Z,1014.26
2018-05-18T07:35:30.461Z,1014.29
2018-05-18T07:36:30.468Z,1014.33
2018-05-18T07:37:30.462Z,1014.26
2018-05-18T07:38:30.461Z,1014.30
2018-05-18T07:39:30.477Z,1014.29
2018-05-18T07:40:30.463Z,1014.32
2018-05-18T07:41:30.463Z,1014.29
2018-05-18T07:42:30.463Z,1014.30
2018-05-18T07:43:30.462Z,1014.30
2018-05-18T07:44:30.471Z,1014.31
2018-05-18T07:45:30.465Z,1014.32
2018-05-18T07:46:30.468Z,1014.33
2018-05-18T07:47:30.465Z,1014.34
2018-05-18T07:48:30.469Z,1014.37
2018-05-18T07:49:30.470Z,1014.39
2018-05-18T07:50:30.469Z,1014.35
2018-05-18T07:51:30.471Z,1014.38
2018-05-18T07:52:30.472Z,1014.40
2018-05-18T07:53:30.519Z,1014.41
2018-05-18T07:54:30.476Z,1014.36
2018-05-18T07:55:30.475Z,1014.36
2018-05-18T07:56:30.477Z,1014.36
2018-05-18T07:57:30.478Z,1014.40
2018-05-18T07:58:30.478Z,1014.36
2018-05-18T07:59:30.516Z,1014.36
2018-05-18T08:00:30.479Z,1014.36
2018-05-18T08:01:30.637Z,1014.33
2018-05-18T08:02:30.489Z,1014.36
2018-05-18T08:03:30.486Z,1014.46
2018-05-18T08:04:30.885Z,1014.43
2018-05-18T08:05:30.489Z,1014.40
2018-05-18T08:06:30.497Z,1014.46
2018-05-18T08:07:30.490Z,1014.50
2018-05-18T08:08:30.496Z,1014.49
2018-05-18T08:09:30.496Z,1014.49
2018-05-18T08:10:30.495Z,1014.50
2018-05-18T08:11:30.498Z,1014.52
2018-05-18T08:12:30.503Z,1014.49
2018-05-18T08:13:30.502Z,1014.54
2018-05-18T08:14:30.503Z,1014.55
2018-05-18T08:15:30.503Z,1014.55
2018-05-18T08:16:30.512Z,1014.60
2018-05-18T08:17:30.505Z,1014.60
2018-05-18T08:18:30.514Z,1014.58
2018-05-18T08:19:30.515Z,1014.59
2018-05-18T08:20:30.550Z,1014.63
2018-05-18T08:21:30.555Z,1014.58
2018-05-18T08:22:30.517Z,1014.63
2018-05-18T08:23:30.517Z,1014.65
2018-05-18T08:24:30.544Z,1014.69
2018-05-18T08:25:30.525Z,1014.66
2018-05-18T08:26:30.521Z,1014.68
2018-05-18T08:27:30.526Z,1014.63
2018-05-18T08:28:30.521Z,1014.65
2018-05-18T08:29:30.525Z,1014.67
2018-05-18T08:30:30.567Z,1014.65
2018-05-18T08:31:30.529Z,1014.64
2018-05-18T08:32:30.536Z,1014.67
2018-05-18T08:33:30.529Z,1014.69
2018-05-18T08:34:30.535Z,1014.67
2018-05-18T08:35:30.575Z,1014.71
2018-05-18T08:36:30.537Z,1014.77
2018-05-18T08:37:30.536Z,1014.74
2018-05-18T08:38:30.538Z,1014.83
2018-05-18T08:39:30.539Z,1014.81
2018-05-18T08:40:30.541Z,1014.81
2018-05-18T08:41:30.546Z,1014.85
2018-05-18T08:42:30.570Z,1014.89
2018-05-18T08:43:30.543Z,1014.88
2018-05-18T08:44:30.618Z,1014.84
2018-05-18T08:45:30.555Z,1014.90
2018-05-18T08:46:30.548Z,1014.88
2018-05-18T08:47:30.547Z,1014.89
2018-05-18T08:48:30.550Z,1014.91
2018-05-18T08:49:30.549Z,1014.90
2018-05-18T08:50:30.632Z,1014.90
2018-05-18T08:51:30.552Z,1014.92
2018-05-18T08:52:30.554Z,1014.91
2018-05-18T08:53:30.552Z,1014.96
2018-05-18T08:54:30.553Z,1014.94
2018-05-18T08:55:30.562Z,1015.01
2018-05-18T08:56:30.556Z,1015.00
2018-05-18T08:57:30.557Z,1015.03
2018-05-18T08:58:30.562Z,1015.00
2018-05-18T08:59:30.559Z,1015.01
2018-05-18T09:00:30.572Z,1015.03
2018-05-18T09:01:30.564Z,1015.03
2018-05-18T09:02:30.565Z,1015.09
2018-05-18T09:03:30.560Z,1015.05
2018-05-18T09:04:30.562Z,1015.07
2018-05-18T09:05:30.570Z,1015.11
2018-05-18T09:06:30.566Z,1015.09
2018-05-18T09:07:30.594Z,1015.09
2018-05-18T09:08:30.565Z,1015.13
2018-05-18T09:09:30.570Z,1015.11
2018-05-18T09:10:30.573Z,1015.08
2018-05-18T09:11:30.568Z,1015.07
2018-05-18T09:12:30.568Z,1015.06
2018-05-18T09:13:30.581Z,1015.05
2018-05-18T09:14:30.575Z,1015.07
2018-05-18T09:15:30.570Z,1015.06
2018-05-18T09:16:30.570Z,1015.02
2018-05-18T09:17:30.570Z,1015.07
2018-05-18T09:18:30.573Z,1015.03
2018-05-18T09:19:30.577Z,1015.04
2018-05-18T09:20:30.576Z,1015.04
2018-05-18T09:21:30.576Z,1015.07
2018-05-18T09:22:30.577Z,1015.03
2018-05-18T09:23:30.574Z,1015.07
2018-05-18T09:24:30.577Z,1015.01
2018-05-18T09:25:30.577Z,1015.07
2018-05-18T09:26:30.669Z,1015.06
2018-05-18T09:27:30.577Z,1015.04
2018-05-18T09:28:30.603Z,1015.06
2018-05-18T09:29:30.583Z,1015.08
2018-05-18T09:30:30.581Z,1015.07
2018-05-18T09:31:30.579Z,1015.05
2018-05-18T09:32:30.586Z,1015.07
2018-05-18T09:33:30.583Z,1015.08
2018-05-18T09:34:30.586Z,1015.14
2018-05-18T09:35:30.583Z,1015.10
2018-05-18T09:36:30.584Z,1015.13
2018-05-18T09:37:30.586Z,1015.15
2018-05-18T09:38:30.588Z,1015.16
2018-05-18T09:39:30.586Z,1015.15
2018-05-18T09:40:30.587Z,1015.26
2018-05-18T09:41:30.591Z,1015.26
2018-05-18T09:42:30.601Z,1015.26
2018-05-18T09:43:30.588Z,1015.24
2018-05-18T09:44:30.588Z,1015.28
2018-05-18T09:45:30.588Z,1015.28
2018-05-18T09:46:30.593Z,1015.27
2018-05-18T09:47:30.594Z,1015.26
2018-05-18T09:48:30.591Z,1015.29
2018-05-18T09:49:30.594Z,1015.34
2018-05-18T09:50:30.593Z,1015.34
2018-05-18T09:51:30.598Z,1015.37
2018-05-18T09:52:30.599Z,1015.34
2018-05-18T09:53:30.596Z,1015.33
2018-05-18T09:54:30.764Z,1015.32
2018-05-18T09:55:30.749Z,1015.32
2018-05-18T09:56:30.601Z,1015.28
2018-05-18T09:57:30.597Z,1015.31
2018-05-18T09:58:30.599Z,1015.32
2018-05-18T09:59:30.600Z,1015.26
2018-05-18T10:00:30.602Z,1015.27
2018-05-18T10:01:30.599Z,1015.23
2018-05-18T10:02:30.598Z,1015.24
2018-05-18T10:03:30.601Z,1015.30
2018-05-18T10:04:30.603Z,1015.21
2018-05-18T10:05:30.607Z,1015.29
2018-05-18T10:06:30.606Z,1015.21
2018-05-18T10:07:30.604Z,1015.23
2018-05-18T10:08:30.606Z,1015.24
2018-05-18T10:09:30.607Z,1015.29
2018-05-18T10:10:30.608Z,1015.30
2018-05-18T10:11:30.607Z,1015.29
2018-05-18T10:12:30.629Z,1015.26
2018-05-18T10:13:30.607Z,1015.30
2018-05-18T10:14:30.615Z,1015.34
2018-05-18T10:15:30.614Z,1015.30
2018-05-18T10:16:30.612Z,1015.38
2018-05-18T10:17:30.611Z,1015.35
2018-05-18T10:18:30.661Z,1015.36
2018-05-18T10:19:30.619Z,1015.34
2018-05-18T10:20:30.618Z,1015.34
2018-05-18T10:21:30.617Z,1015.36
2018-05-18T10:22:30.615Z,1015.37
2018-05-18T10:23:30.618Z,1015.39
2018-05-18T10:24:30.619Z,1015.40
2018-05-18T10:25:30.620Z,1015.43
2018-05-18T10:26:30.621Z,1015.47
2018-05-18T10:27:30.625Z,1015.41
2018-05-18T10:28:30.629Z,1015.46
2018-05-18T10:29:30.630Z,1015.43
2018-05-18T10:30:30.625Z,1015.45
2018-05-18T10:31:30.631Z,1015.47
2018-05-18T10:32:30.625Z,1015.43
2018-05-18T10:33:30.632Z,1015.43
2018-05-18T10:34:30.631Z,1015.44
2018-05-18T10:35:30.628Z,1015.45
2018-05-18T10:36:30.631Z,1015.41
2018-05-18T10:37:30.634Z,1015.42
2018-05-18T10:38:30.635Z,1015.43
2018-05-18T10:39:30.713Z,1015.49
2018-05-18T10:40:30.639Z,1015.49
2018-05-18T10:41:30.639Z,1015.48
2018-05-18T10:42:30.643Z,1015.49
2018-05-18T10:43:30.640Z,1015.51
2018-05-18T10:44:30.649Z,1015.52
2018-05-18T10:45:30.646Z,1015.59
2018-05-18T10:46:30.649Z,1015.56
2018-05-18T10:47:30.647Z,1015.57
2018-05-18T10:48:30.651Z,1015.57
2018-05-18T10:49:30.721Z,1015.52
2018-05-18T10:50:30.662Z,1015.53
2018-05-18T10:51:30.654Z,1015.56
2018-05-18T10:52:30.662Z,1015.53
2018-05-18T10:53:30.655Z,1015.58
2018-05-18T10:54:30.655Z,1015.51
2018-05-18T10:55:30.659Z,1015.58
2018-05-18T10:56:30.662Z,1015.54
2018-05-18T10:57:30.667Z,1015.53
2018-05-18T10:58:30.672Z,1015.52
2018-05-18T10:59:30.663Z,1015.57
2018-05-18T11:00:30.664Z,1015.56
2018-05-18T11:01:30.680Z,1015.56
2018-05-18T11:02:30.670Z,1015.61
2018-05-18T11:03:30.674Z,1015.57
2018-05-18T11:04:30.673Z,1015.61
2018-05-18T11:05:30.679Z,1015.66
2018-05-18T11:06:30.681Z,1015.62
2018-05-18T11:07:30.675Z,1015.64
2018-05-18T11:08:30.677Z,1015.66
2018-05-18T11:09:30.679Z,1015.68
2018-05-18T11:10:30.680Z,1015.66
2018-05-18T11:11:30.685Z,1015.66
2018-05-18T11:12:30.684Z,1015.64
2018-05-18T11:13:30.681Z,1015.64
2018-05-18T11:14:30.684Z,1015.65
2018-05-18T11:15:30.685Z,1015.71
2018-05-18T11:16:30.692Z,1015.63
2018-05-18T11:17:30.695Z,1015.61
2018-05-18T11:18:30.692Z,1015.62
2018-05-18T11:19:30.697Z,1015.61
2018-05-18T11:20:30.697Z,1015.64
2018-05-18T11:21:30.703Z,1015.63
2018-05-18T11:22:30.703Z,1015.69
2018-05-18T11:23:30.698Z,1015.69
2018-05-18T11:24:30.699Z,1015.67
2018-05-18T11:25:30.705Z,1015.67
2018-05-18T11:26:30.703Z,1015.66
2018-05-18T11:27:30.707Z,1015.64
2018-05-18T11:28:30.704Z,1015.59
2018-05-18T11:29:30.709Z,1015.53
2018-05-18T11:30:30.709Z,1015.57
2018-05-18T11:31:30.709Z,1015.54
2018-05-18T11:32:30.715Z,1015.51
2018-05-18T11:33:30.711Z,1015.55
2018-05-18T11:34:30.716Z,1015.52
2018-05-18T11:35:30.716Z,1015.51
2018-05-18T11:36:30.721Z,1015.55
2018-05-18T11:37:30.725Z,1015.55
2018-05-18T11:38:30.723Z,1015.56
2018-05-18T11:39:30.724Z,1015.62
2018-05-18T11:40:30.728Z,1015.61
2018-05-18T11:41:30.729Z,1015.61
2018-05-18T11:42:30.731Z,1015.59
2018-05-18T11:43:30.733Z,1015.56
2018-05-18T11:44:30.737Z,1015.56
2018-05-18T11:45:30.734Z,1015.58
2018-05-18T11:46:30.741Z,1015.58
2018-05-18T11:47:30.742Z,1015.66
2018-05-18T11:48:30.741Z,1015.68
2018-05-18T11:49:30.745Z,1015.64
2018-05-18T11:50:30.747Z,1015.70
2018-05-18T11:51:30.747Z,1015.64
2018-05-18T11:52:30.747Z,1015.64
2018-05-18T11:53:30.750Z,1015.63
2018-05-18T11:54:30.751Z,1015.67
2018-05-18T11:55:30.754Z,1015.64
2018-05-18T11:56:30.755Z,1015.67
2018-05-18T11:57:30.756Z,1015.63
2018-05-18T11:58:30.758Z,1015.65
2018-05-18T11:59:30.757Z,1015.62
2018-05-18T12:00:30.762Z,1015.64
2018-05-18T12:01:30.763Z,1015.64
2018-05-18T12:02:30.792Z,1015.63
2018-05-18T12:03:30.765Z,1015.66
2018-05-18T12:04:30.767Z,1015.66
2018-05-18T12:05:30.767Z,1015.66